Green Fast — ZDHA9 — position and weather

sailwx.info

Track history (hours):
 
Tides and Currents Weather Stations Pressure Air Temp Water Temp Dewpoint Dewpoint Depression Visibility Wind Speed Wind Dir Waves Ship Positions

Green Fast

Last reported at 2017-May-22 23:00 UTC. Time now 2017-May-22 23:12 UTC.
Position N 36°40' E 012°34'.

Length 118 m; draft 5.6 m.

Type: Cargo ship. MMSI: 236294000.

Date/timePositionNaut miles runAvg speedWind from/ knotsBaromVisibWave heightAir tempDewpointWater temp
2017-May-22 23:00N 36°40' E 012°34'611.1
2017-May-22 22:30N 36°43' E 012°28'511.0
2017-May-22 22:00N 36°46' E 012°22'510.9
2017-May-22 21:30N 36°49' E 012°16'510.8
2017-May-22 21:00N 36°52' E 012°10'510.8
2017-May-22 20:30N 36°55' E 012°05'510.7
2017-May-22 20:00N 36°57' E 011°59'510.6
2017-May-22 19:30N 37°00' E 011°53'510.6
2017-May-22 19:00N 37°03' E 011°48'510.2
2017-May-22 18:30N 37°06' E 011°42'5 9.8
2017-May-22 18:00N 37°08' E 011°37'5 9.5
2017-May-22 17:30N 37°11' E 011°32'5 9.4
2017-May-22 17:00N 37°13' E 011°27'5 9.6
2017-May-22 16:30N 37°16' E 011°22'5 9.8
2017-May-22 16:00N 37°18' E 011°16'5 9.8
2017-May-22 15:30N 37°21' E 011°11'5 9.6
2017-May-22 15:00N 37°23' E 011°06'5 9.9
2017-May-22 14:30N 37°24' E 010°60'12310.0
2017-May-22 02:11N 37°05' E 008°27'  
2017-May-17 12:57N 36°54' E 007°47'3 4.6
2017-May-17 12:25N 36°56' E 007°49'251 8.5
2017-May-16 06:54N 36°41' E 013°02'411.4
2017-May-16 06:30N 36°39' E 013°07'611.8
2017-May-16 06:00N 36°36' E 013°13'611.8
2017-May-16 05:30N 36°33' E 013°20'612.1
2017-May-16 05:00N 36°31' E 013°26'612.1
2017-May-16 04:30N 36°28' E 013°33'612.2
2017-May-16 04:00N 36°25' E 013°40'612.2
2017-May-16 03:30N 36°23' E 013°47'612.2
2017-May-16 03:00N 36°19' E 013°53'612.2
2017-May-16 02:30N 36°17' E 014°00'611.9
2017-May-16 02:00N 36°14' E 014°07'611.7
2017-May-16 01:30N 36°11' E 014°13'611.6
2017-May-16 01:00N 36°07' E 014°18'611.7
2017-May-16 00:30N 36°04' E 014°24'611.6
2017-May-16 00:00N 35°60' E 014°29'611.6
2017-May-15 23:30N 35°56' E 014°34'611.3
2017-May-15 23:00N 35°50' E 014°36'3 6.7
2017-May-15 22:30N 35°49' E 014°32'0 0.2
2017-May-15 21:35N 35°49' E 014°32'0 0.0
2017-May-15 21:26N 35°49' E 014°32'0 0.0
2017-May-15 20:59N 35°49' E 014°32'0 0.0
2017-May-15 20:29N 35°49' E 014°32'0 0.0
2017-May-15 19:56N 35°49' E 014°32'0 0.0
2017-May-15 18:11N 35°49' E 014°32'0 0.0
2017-May-15 17:53N 35°49' E 014°32'0 0.1
2017-May-15 17:29N 35°49' E 014°32'0 0.1
2017-May-15 16:59N 35°49' E 014°32'0 0.0
2017-May-15 16:23N 35°49' E 014°32'0 0.0
2017-May-15 15:59N 35°49' E 014°32'0 0.0
2017-May-15 15:20N 35°49' E 014°32'0 0.0
2017-May-15 14:59N 35°49' E 014°32'0 0.0
2017-May-15 13:53N 35°49' E 014°32'0 0.0
2017-May-15 13:29N 35°49' E 014°32'0 0.0
2017-May-15 12:56N 35°49' E 014°32'0 0.0
2017-May-15 10:20N 35°49' E 014°32'0 0.0
2017-May-15 07:10N 35°49' E 014°32'0 2.0
2017-May-15 07:00N 35°49' E 014°33'2 4.8
2017-May-15 06:30N 35°48' E 014°35'0 0.3
2017-May-15 06:01N 35°48' E 014°35'2 4.1
2017-May-15 05:30N 35°47' E 014°37'1 2.9
2017-May-15 05:01N 35°46' E 014°38'0 0.3
2017-May-15 04:30N 35°46' E 014°38'0 0.3
2017-May-15 04:00N 35°46' E 014°38'0 0.6
2017-May-15 03:30N 35°46' E 014°39'0 0.8
2017-May-15 03:00N 35°46' E 014°38'2 4.1
2017-May-15 02:29N 35°47' E 014°36'511.0
2017-May-15 02:00N 35°53' E 014°37'612.5
2017-May-15 01:31N 35°58' E 014°42'612.4
2017-May-15 01:00N 36°03' E 014°46'812.3
2017-May-15 00:22N 36°09' E 014°52'512.4
2017-May-15 00:00N 36°13' E 014°55'612.5
2017-May-14 23:30N 36°18' E 014°60'612.3
2017-May-14 23:00N 36°23' E 015°04'612.2
2017-May-14 22:31N 36°28' E 015°08'62 3.5
2017-May-14 04:56N 37°29' E 015°06'1 2.6
2017-May-14 04:26N 37°28' E 015°07'14 6.0
2017-May-14 02:05N 37°25' E 015°24'1 8.5
2017-May-14 02:00N 37°25' E 015°25'4 8.6
2017-May-14 01:31N 37°24' E 015°30'4 8.3
2017-May-14 01:00N 37°24' E 015°36'4 8.5
2017-May-14 00:31N 37°23' E 015°41'4 8.1
2017-May-14 00:00N 37°22' E 015°46'4 8.0
2017-May-13 23:30N 37°21' E 015°51'6 7.8
2017-May-13 22:44N 37°20' E 015°58'2 7.7
2017-May-13 22:30N 37°20' E 016°00'4 7.5
2017-May-13 21:58N 37°19' E 016°05'  
Track history (hours):
 
Tides and Currents Weather Stations Pressure Air Temp Water Temp Dewpoint Dewpoint Depression Visibility Wind Speed Wind Dir Waves Ship Positions

Green Fast

Last reported at 2017-May-22 23:00 UTC. Time now 2017-May-22 23:12 UTC.
Position N 36°40' E 012°34'.

Length 118 m; draft 5.6 m.

Type: Cargo ship. MMSI: 236294000.

Date/timePositionNaut miles runAvg speedWind from/ knotsBaromVisibWave heightAir tempDewpointWater temp
2017-May-22 23:00N 36°40' E 012°34'611.1
2017-May-22 22:30N 36°43' E 012°28'511.0
2017-May-22 22:00N 36°46' E 012°22'510.9
2017-May-22 21:30N 36°49' E 012°16'510.8
2017-May-22 21:00N 36°52' E 012°10'510.8
2017-May-22 20:30N 36°55' E 012°05'510.7
2017-May-22 20:00N 36°57' E 011°59'510.6
2017-May-22 19:30N 37°00' E 011°53'510.6
2017-May-22 19:00N 37°03' E 011°48'510.2
2017-May-22 18:30N 37°06' E 011°42'5 9.8
2017-May-22 18:00N 37°08' E 011°37'5 9.5
2017-May-22 17:30N 37°11' E 011°32'5 9.4
2017-May-22 17:00N 37°13' E 011°27'5 9.6
2017-May-22 16:30N 37°16' E 011°22'5 9.8
2017-May-22 16:00N 37°18' E 011°16'5 9.8
2017-May-22 15:30N 37°21' E 011°11'5 9.6
2017-May-22 15:00N 37°23' E 011°06'5 9.9
2017-May-22 14:30N 37°24' E 010°60'12310.0
2017-May-22 02:11N 37°05' E 008°27'  
2017-May-17 12:57N 36°54' E 007°47'3 4.6
2017-May-17 12:25N 36°56' E 007°49'251 8.5
2017-May-16 06:54N 36°41' E 013°02'411.4
2017-May-16 06:30N 36°39' E 013°07'611.8
2017-May-16 06:00N 36°36' E 013°13'611.8
2017-May-16 05:30N 36°33' E 013°20'612.1
2017-May-16 05:00N 36°31' E 013°26'612.1
2017-May-16 04:30N 36°28' E 013°33'612.2
2017-May-16 04:00N 36°25' E 013°40'612.2
2017-May-16 03:30N 36°23' E 013°47'612.2
2017-May-16 03:00N 36°19' E 013°53'612.2
2017-May-16 02:30N 36°17' E 014°00'611.9
2017-May-16 02:00N 36°14' E 014°07'611.7
2017-May-16 01:30N 36°11' E 014°13'611.6
2017-May-16 01:00N 36°07' E 014°18'611.7
2017-May-16 00:30N 36°04' E 014°24'611.6
2017-May-16 00:00N 35°60' E 014°29'611.6
2017-May-15 23:30N 35°56' E 014°34'611.3
2017-May-15 23:00N 35°50' E 014°36'3 6.7
2017-May-15 22:30N 35°49' E 014°32'0 0.2
2017-May-15 21:35N 35°49' E 014°32'0 0.0
2017-May-15 21:26N 35°49' E 014°32'0 0.0
2017-May-15 20:59N 35°49' E 014°32'0 0.0
2017-May-15 20:29N 35°49' E 014°32'0 0.0
2017-May-15 19:56N 35°49' E 014°32'0 0.0
2017-May-15 18:11N 35°49' E 014°32'0 0.0
2017-May-15 17:53N 35°49' E 014°32'0 0.1
2017-May-15 17:29N 35°49' E 014°32'0 0.1
2017-May-15 16:59N 35°49' E 014°32'0 0.0
2017-May-15 16:23N 35°49' E 014°32'0 0.0
2017-May-15 15:59N 35°49' E 014°32'0 0.0
2017-May-15 15:20N 35°49' E 014°32'0 0.0
2017-May-15 14:59N 35°49' E 014°32'0 0.0
2017-May-15 13:53N 35°49' E 014°32'0 0.0
2017-May-15 13:29N 35°49' E 014°32'0 0.0
2017-May-15 12:56N 35°49' E 014°32'0 0.0
2017-May-15 10:20N 35°49' E 014°32'0 0.0
2017-May-15 07:10N 35°49' E 014°32'0 2.0
2017-May-15 07:00N 35°49' E 014°33'2 4.8
2017-May-15 06:30N 35°48' E 014°35'0 0.3
2017-May-15 06:01N 35°48' E 014°35'2 4.1
2017-May-15 05:30N 35°47' E 014°37'1 2.9
2017-May-15 05:01N 35°46' E 014°38'0 0.3
2017-May-15 04:30N 35°46' E 014°38'0 0.3
2017-May-15 04:00N 35°46' E 014°38'0 0.6
2017-May-15 03:30N 35°46' E 014°39'0 0.8
2017-May-15 03:00N 35°46' E 014°38'2 4.1
2017-May-15 02:29N 35°47' E 014°36'511.0
2017-May-15 02:00N 35°53' E 014°37'612.5
2017-May-15 01:31N 35°58' E 014°42'612.4
2017-May-15 01:00N 36°03' E 014°46'812.3
2017-May-15 00:22N 36°09' E 014°52'512.4
2017-May-15 00:00N 36°13' E 014°55'612.5
2017-May-14 23:30N 36°18' E 014°60'612.3
2017-May-14 23:00N 36°23' E 015°04'612.2
2017-May-14 22:31N 36°28' E 015°08'62 3.5
2017-May-14 04:56N 37°29' E 015°06'1 2.6
2017-May-14 04:26N 37°28' E 015°07'14 6.0
2017-May-14 02:05N 37°25' E 015°24'1 8.5
2017-May-14 02:00N 37°25' E 015°25'4 8.6
2017-May-14 01:31N 37°24' E 015°30'4 8.3
2017-May-14 01:00N 37°24' E 015°36'4 8.5
2017-May-14 00:31N 37°23' E 015°41'4 8.1
2017-May-14 00:00N 37°22' E 015°46'4 8.0
2017-May-13 23:30N 37°21' E 015°51'6 7.8
2017-May-13 22:44N 37°20' E 015°58'2 7.7
2017-May-13 22:30N 37°20' E 016°00'4 7.5
2017-May-13 21:58N 37°19' E 016°05'  

Dump ship's entire track history